createdAt,value
2022-09-06T00:02:16.424Z,1.40
2022-09-06T00:05:18.877Z,1.30
2022-09-06T00:08:21.493Z,1.23
2022-09-06T00:11:24.813Z,1.30
2022-09-06T00:14:28.160Z,1.40
2022-09-06T00:17:31.100Z,1.58
2022-09-06T00:20:34.099Z,1.38
2022-09-06T00:23:36.330Z,1.83
2022-09-06T00:26:39.359Z,1.75
2022-09-06T00:29:42.628Z,1.88
2022-09-06T00:32:45.859Z,1.65
2022-09-06T00:35:48.372Z,1.67
2022-09-06T00:38:50.559Z,1.60
2022-09-06T00:41:53.427Z,1.50
2022-09-06T00:44:56.188Z,1.60
2022-09-06T00:47:58.901Z,1.63
2022-09-06T00:51:01.766Z,1.65
2022-09-06T00:54:04.051Z,1.80
2022-09-06T00:57:06.686Z,1.70
2022-09-06T01:00:09.231Z,1.83
2022-09-06T01:03:12.197Z,1.80
2022-09-06T01:06:15.160Z,1.48
2022-09-06T01:09:18.020Z,1.63
2022-09-06T01:12:20.914Z,1.92
2022-09-06T01:15:23.749Z,1.80
2022-09-06T01:18:26.380Z,1.85
2022-09-06T01:21:29.673Z,1.75
2022-09-06T01:24:32.976Z,1.80
2022-09-06T01:27:35.871Z,1.90
2022-09-06T01:30:39.162Z,1.80
2022-09-06T01:33:42.222Z,1.75
2022-09-06T01:37:08.300Z,1.90
2022-09-06T01:40:08.795Z,1.85
2022-09-06T01:43:12.095Z,2.15
2022-09-06T01:46:15.429Z,2.17
2022-09-06T01:49:18.212Z,2.00
2022-09-06T01:52:21.347Z,2.03
2022-09-06T01:55:24.701Z,2.08
2022-09-06T01:58:27.422Z,1.77
2022-09-06T02:01:29.762Z,2.10
2022-09-06T02:04:32.494Z,2.05
2022-09-06T02:07:35.184Z,2.20
2022-09-06T02:10:37.819Z,1.95
2022-09-06T02:13:40.492Z,1.90
2022-09-06T02:16:43.494Z,2.30
2022-09-06T02:19:46.777Z,2.25
2022-09-06T02:22:49.213Z,2.13
2022-09-06T02:25:51.871Z,2.10
2022-09-06T02:28:54.846Z,1.90
2022-09-06T02:31:57.879Z,1.73
2022-09-06T02:35:00.456Z,1.77
2022-09-06T02:38:03.390Z,2.30
2022-09-06T02:41:06.218Z,1.90
2022-09-06T02:44:08.900Z,2.08
2022-09-06T02:47:11.613Z,2.10
2022-09-06T02:50:13.789Z,2.20
2022-09-06T02:53:16.742Z,2.08
2022-09-06T02:56:19.557Z,1.88
2022-09-06T02:59:22.549Z,1.80
2022-09-06T03:02:25.062Z,2.00
2022-09-06T03:05:27.412Z,2.03
2022-09-06T03:08:30.081Z,2.10
2022-09-06T03:11:33.307Z,2.22
2022-09-06T03:14:36.679Z,2.20
2022-09-06T03:17:39.425Z,2.13
2022-09-06T03:20:41.939Z,2.20
2022-09-06T03:23:44.577Z,1.92
2022-09-06T03:26:47.260Z,2.40
2022-09-06T03:29:49.407Z,2.20
2022-09-06T03:32:51.583Z,2.05
2022-09-06T03:35:54.115Z,2.30
2022-09-06T03:38:58.043Z,2.55
2022-09-06T03:42:01.445Z,2.15
2022-09-06T03:45:03.646Z,2.38
2022-09-06T03:48:06.361Z,5.10
2022-09-06T03:51:08.577Z,29.70
2022-09-06T03:54:10.812Z,25.85
2022-09-06T03:57:13.365Z,19.50
2022-09-06T04:00:16.011Z,18.33
2022-09-06T04:03:18.933Z,18.35
2022-09-06T04:06:21.657Z,16.08
2022-09-06T04:09:24.404Z,16.55
2022-09-06T04:12:27.201Z,16.25
2022-09-06T04:15:30.449Z,23.25
2022-09-06T04:18:33.326Z,18.25
2022-09-06T04:21:35.870Z,17.02
2022-09-06T04:24:39.174Z,15.05
2022-09-06T04:27:42.013Z,154.85
2022-09-06T04:30:44.911Z,66.50
2022-09-06T04:33:47.198Z,50.08
2022-09-06T04:36:50.148Z,46.75
2022-09-06T04:39:53.454Z,47.47
2022-09-06T04:42:56.212Z,41.72
2022-09-06T04:45:59.118Z,51.30
2022-09-06T04:49:01.598Z,45.00
2022-09-06T04:52:04.008Z,39.15
2022-09-06T04:55:06.675Z,34.08
2022-09-06T04:58:09.720Z,31.40
2022-09-06T05:01:13.105Z,29.90
2022-09-06T05:04:16.275Z,27.38
2022-09-06T05:07:19.166Z,26.30
2022-09-06T05:10:21.709Z,25.08
2022-09-06T05:13:24.949Z,22.23
2022-09-06T05:16:27.879Z,22.23
2022-09-06T05:19:30.726Z,20.25
2022-09-06T05:22:33.711Z,18.40
2022-09-06T05:25:36.707Z,16.85
2022-09-06T05:28:39.571Z,17.90
2022-09-06T05:31:42.241Z,18.10
2022-09-06T05:34:44.460Z,27.65
2022-09-06T05:37:46.679Z,27.98
2022-09-06T05:40:49.625Z,22.35
2022-09-06T05:43:52.399Z,18.95
2022-09-06T05:46:55.236Z,18.60
2022-09-06T05:49:58.465Z,17.58
2022-09-06T05:53:01.357Z,16.35
2022-09-06T05:56:04.006Z,15.38
2022-09-06T05:59:06.624Z,14.63
2022-09-06T06:02:09.752Z,14.05
2022-09-06T06:05:12.757Z,12.63
2022-09-06T06:08:15.789Z,11.13
2022-09-06T06:11:19.133Z,10.13
2022-09-06T06:14:21.697Z,9.90
2022-09-06T06:17:24.640Z,9.23
2022-09-06T06:20:27.270Z,8.80
2022-09-06T06:23:30.028Z,7.63
2022-09-06T06:26:33.018Z,8.27
2022-09-06T06:29:35.454Z,7.68
2022-09-06T06:32:38.082Z,6.70
2022-09-06T06:35:40.568Z,6.47
2022-09-06T06:38:44.110Z,7.60
2022-09-06T06:41:47.778Z,6.45
2022-09-06T06:45:13.599Z,6.45
2022-09-06T06:48:16.745Z,6.13
2022-09-06T06:51:19.680Z,6.03
2022-09-06T06:54:22.341Z,5.43
2022-09-06T06:57:24.793Z,6.40
2022-09-06T07:00:28.357Z,6.28
2022-09-06T07:03:31.076Z,6.38
2022-09-06T07:13:18.126Z,5.90
2022-09-06T07:16:21.230Z,6.20
2022-09-06T07:22:46.987Z,7.70
2022-09-06T07:25:50.265Z,7.05
2022-09-06T07:28:53.022Z,7.50
2022-09-06T07:32:11.862Z,6.97
2022-09-06T07:35:14.704Z,6.70
2022-09-06T07:38:17.695Z,7.40
2022-09-06T07:41:20.578Z,7.07
2022-09-06T07:44:22.807Z,5.80
2022-09-06T07:50:49.199Z,6.63
2022-09-06T07:54:07.020Z,6.30
2022-09-06T07:57:14.843Z,5.97
2022-09-06T08:00:17.923Z,6.18
2022-09-06T08:03:20.771Z,5.75
2022-09-06T08:06:23.805Z,6.00
2022-09-06T08:09:26.233Z,5.70
2022-09-06T08:12:29.277Z,6.05
2022-09-06T08:15:33.541Z,5.85
2022-09-06T08:18:37.126Z,5.80
2022-09-06T08:21:39.648Z,5.70
2022-09-06T08:24:42.396Z,5.18
2022-09-06T08:27:44.837Z,5.28
2022-09-06T08:30:47.094Z,5.30
2022-09-06T08:33:50.098Z,5.40
2022-09-06T08:36:52.480Z,5.28
2022-09-06T08:39:55.069Z,4.78
2022-09-06T08:42:58.324Z,4.65
2022-09-06T08:46:01.366Z,4.60
2022-09-06T08:49:03.991Z,4.35
2022-09-06T08:52:06.153Z,4.40
2022-09-06T08:55:08.320Z,4.30
2022-09-06T08:58:11.308Z,4.32
2022-09-06T09:01:14.269Z,3.92
2022-09-06T09:04:16.913Z,4.15
2022-09-06T09:07:19.120Z,4.10
2022-09-06T09:10:22.524Z,3.92
2022-09-06T09:13:24.701Z,3.83
2022-09-06T09:16:27.220Z,3.72
2022-09-06T09:19:30.035Z,3.80
2022-09-06T09:22:32.757Z,3.35
2022-09-06T09:25:35.650Z,3.78
2022-09-06T09:28:37.881Z,3.72
2022-09-06T09:31:40.468Z,3.40
2022-09-06T09:34:43.205Z,3.60
2022-09-06T09:37:46.609Z,3.60
2022-09-06T09:40:50.334Z,3.40
2022-09-06T09:43:52.908Z,3.13
2022-09-06T09:46:55.136Z,3.45
2022-09-06T09:49:58.156Z,3.25
2022-09-06T09:53:01.153Z,3.45
2022-09-06T09:56:04.468Z,3.08
2022-09-06T09:59:06.768Z,2.90
2022-09-06T10:02:09.983Z,2.65
2022-09-06T10:05:13.086Z,2.75
2022-09-06T10:08:15.831Z,2.50
2022-09-06T10:11:19.171Z,2.58
2022-09-06T10:14:21.693Z,2.60
2022-09-06T10:17:24.700Z,2.60
2022-09-06T10:20:27.724Z,2.63
2022-09-06T10:26:52.906Z,2.63
2022-09-06T10:29:55.533Z,2.28
2022-09-06T10:32:58.171Z,2.30
2022-09-06T10:36:01.210Z,2.38
2022-09-06T10:39:04.265Z,2.58
2022-09-06T10:42:07.348Z,3.72
2022-09-06T10:45:10.135Z,3.42
2022-09-06T10:48:14.925Z,3.88
2022-09-06T10:51:17.901Z,4.63
2022-09-06T10:54:20.741Z,4.15
2022-09-06T11:00:46.047Z,3.75
2022-09-06T11:04:00.033Z,3.28
2022-09-06T11:07:07.403Z,3.00
2022-09-06T11:10:11.232Z,2.55
2022-09-06T11:13:14.531Z,2.13
2022-09-06T11:16:17.427Z,2.13
2022-09-06T11:19:20.502Z,2.42
2022-09-06T11:22:23.410Z,2.05
2022-09-06T11:25:26.154Z,2.90
2022-09-06T11:28:28.863Z,2.70
2022-09-06T11:34:52.914Z,2.90
2022-09-06T11:37:55.194Z,2.70
2022-09-06T11:40:58.186Z,2.50
2022-09-06T11:44:01.067Z,3.00
2022-09-06T11:47:03.661Z,3.13
2022-09-06T11:50:06.707Z,5.93
2022-09-06T11:53:09.128Z,9.70
2022-09-06T11:56:12.457Z,11.88
2022-09-06T11:59:15.764Z,7.95
2022-09-06T12:02:18.502Z,4.82
2022-09-06T12:05:21.045Z,4.78
2022-09-06T12:08:23.955Z,3.92
2022-09-06T12:11:30.187Z,3.65
2022-09-06T12:14:33.327Z,3.30
2022-09-06T12:17:38.816Z,2.97
2022-09-06T12:20:41.726Z,2.30
2022-09-06T12:23:44.611Z,2.70
2022-09-06T12:26:49.796Z,2.70
2022-09-06T12:29:56.282Z,2.72
2022-09-06T12:32:59.349Z,2.50
2022-09-06T12:36:03.452Z,2.42
2022-09-06T12:39:09.285Z,2.65
2022-09-06T12:42:12.418Z,2.50
2022-09-06T12:45:15.508Z,3.10
2022-09-06T12:48:17.753Z,2.58
2022-09-06T12:51:20.134Z,2.85
2022-09-06T12:54:23.071Z,2.92
2022-09-06T12:57:25.784Z,2.92
2022-09-06T13:00:28.402Z,3.17
2022-09-06T13:03:31.069Z,2.70
2022-09-06T13:06:34.426Z,3.00
2022-09-06T13:09:36.952Z,2.95
2022-09-06T13:12:39.840Z,3.15
2022-09-06T13:15:42.593Z,3.50
2022-09-06T13:18:45.234Z,2.90
2022-09-06T13:21:47.456Z,3.05
2022-09-06T13:24:49.656Z,3.00
2022-09-06T13:27:52.043Z,3.30
2022-09-06T13:30:55.388Z,2.47
2022-09-06T13:33:58.040Z,2.50
2022-09-06T13:37:01.408Z,2.15
2022-09-06T13:40:04.053Z,2.20
2022-09-06T13:43:06.258Z,2.17
2022-09-06T13:46:08.953Z,2.42
2022-09-06T13:49:11.643Z,2.20
2022-09-06T13:52:14.289Z,2.60
2022-09-06T13:55:17.252Z,2.28
2022-09-06T13:58:20.203Z,2.40
2022-09-06T14:01:22.983Z,2.70
2022-09-06T14:04:25.973Z,3.40
2022-09-06T14:07:28.847Z,2.80
2022-09-06T14:10:32.222Z,2.85
2022-09-06T14:13:35.429Z,2.78
2022-09-06T14:16:38.284Z,2.17
2022-09-06T14:19:41.740Z,1.95
2022-09-06T14:22:45.637Z,2.22
2022-09-06T14:25:48.613Z,1.95
2022-09-06T14:28:51.203Z,2.00
2022-09-06T14:31:53.982Z,1.90
2022-09-06T14:34:57.173Z,2.30
2022-09-06T14:37:59.580Z,2.30
2022-09-06T14:41:02.135Z,2.03
2022-09-06T14:44:04.714Z,1.88
2022-09-06T14:47:07.326Z,2.00
2022-09-06T14:50:09.965Z,2.08
2022-09-06T14:53:36.752Z,1.80
2022-09-06T14:56:35.830Z,1.75
2022-09-06T14:59:39.003Z,2.10
2022-09-06T15:02:41.942Z,2.20
2022-09-06T15:05:44.985Z,2.00
2022-09-06T15:08:48.119Z,1.60
2022-09-06T15:11:51.552Z,2.17
2022-09-06T15:14:54.453Z,1.90
2022-09-06T15:17:56.920Z,2.15
2022-09-06T15:20:59.511Z,1.95
2022-09-06T15:24:02.438Z,1.48
2022-09-06T15:27:05.284Z,1.70
2022-09-06T15:30:08.306Z,1.73
2022-09-06T15:33:12.003Z,1.90
2022-09-06T15:36:15.421Z,1.85
2022-09-06T15:39:18.923Z,2.03
2022-09-06T15:42:22.657Z,1.50
2022-09-06T15:45:25.852Z,1.55
2022-09-06T15:48:29.113Z,1.80
2022-09-06T15:51:31.566Z,1.60
2022-09-06T15:54:34.214Z,1.65
2022-09-06T15:57:36.693Z,1.70
2022-09-06T16:00:39.674Z,1.70
2022-09-06T16:03:42.982Z,1.92
2022-09-06T16:06:45.682Z,2.00
2022-09-06T16:09:48.326Z,1.83
2022-09-06T16:12:50.943Z,2.30
2022-09-06T16:15:53.656Z,1.90
2022-09-06T16:18:56.861Z,2.10
2022-09-06T16:21:59.738Z,2.10
2022-09-06T16:25:02.319Z,2.13
2022-09-06T16:28:04.862Z,2.08
2022-09-06T16:31:07.365Z,2.05
2022-09-06T16:34:10.061Z,1.80
2022-09-06T16:37:12.568Z,1.70
2022-09-06T16:40:15.606Z,2.10
2022-09-06T16:43:18.165Z,1.67
2022-09-06T16:46:21.110Z,1.60
2022-09-06T16:49:23.833Z,1.65
2022-09-06T16:52:26.881Z,1.73
2022-09-06T16:55:30.230Z,1.70
2022-09-06T16:58:33.231Z,1.85
2022-09-06T17:01:35.547Z,1.70
2022-09-06T17:04:37.829Z,1.92
2022-09-06T17:07:40.028Z,2.03
2022-09-06T17:10:42.417Z,1.70
2022-09-06T17:13:45.092Z,1.80
2022-09-06T17:16:47.349Z,2.00
2022-09-06T17:19:50.458Z,2.00
2022-09-06T17:22:52.941Z,2.00
2022-09-06T17:25:55.173Z,2.00
2022-09-06T17:28:58.004Z,2.00
2022-09-06T17:32:00.234Z,2.30
2022-09-06T17:35:02.476Z,2.38
2022-09-06T17:38:05.022Z,2.30
2022-09-06T17:41:07.844Z,2.38
2022-09-06T17:44:10.691Z,1.90
2022-09-06T17:47:13.969Z,1.73
2022-09-06T17:50:16.510Z,1.80
2022-09-06T17:53:19.450Z,1.98
2022-09-06T17:56:22.762Z,2.00
2022-09-06T17:59:25.873Z,2.17
2022-09-06T18:02:28.748Z,1.88
2022-09-06T18:05:31.715Z,1.80
2022-09-06T18:08:34.158Z,2.08
2022-09-06T18:11:37.121Z,2.20
2022-09-06T18:14:39.569Z,2.17
2022-09-06T18:17:42.489Z,2.10
2022-09-06T18:20:45.239Z,1.98
2022-09-06T18:23:48.520Z,2.10
2022-09-06T18:26:50.966Z,2.10
2022-09-06T18:29:53.940Z,2.22
2022-09-06T18:32:56.712Z,2.03
2022-09-06T18:35:59.214Z,2.25
2022-09-06T18:39:02.360Z,2.30
2022-09-06T18:42:05.275Z,2.10
2022-09-06T18:45:09.024Z,2.13
2022-09-06T18:48:11.488Z,2.20
2022-09-06T18:51:14.120Z,2.20
2022-09-06T18:54:16.631Z,2.28
2022-09-06T18:57:19.806Z,2.30
2022-09-06T19:00:22.689Z,2.33
2022-09-06T19:03:25.661Z,2.58
2022-09-06T19:06:28.077Z,2.53
2022-09-06T19:09:30.819Z,2.95
2022-09-06T19:12:33.725Z,2.58
2022-09-06T19:15:36.686Z,2.63
2022-09-06T19:18:38.985Z,2.47
2022-09-06T19:21:42.662Z,2.53
2022-09-06T19:24:45.510Z,2.22
2022-09-06T19:27:48.918Z,2.20
2022-09-06T19:30:51.958Z,2.58
2022-09-06T19:33:54.496Z,2.17
2022-09-06T19:36:58.113Z,2.53
2022-09-06T19:40:01.047Z,2.22
2022-09-06T19:43:04.168Z,2.92
2022-09-06T19:46:07.615Z,1.95
2022-09-06T19:49:10.395Z,2.70
2022-09-06T19:52:13.297Z,2.53
2022-09-06T19:55:16.285Z,2.60
2022-09-06T19:58:19.147Z,2.20
2022-09-06T20:01:21.911Z,2.10
2022-09-06T20:04:24.228Z,2.50
2022-09-06T20:07:27.164Z,2.13
2022-09-06T20:10:29.780Z,2.22
2022-09-06T20:13:32.450Z,2.40
2022-09-06T20:16:39.328Z,2.10
2022-09-06T20:19:43.649Z,2.30
2022-09-06T20:22:47.237Z,2.20
2022-09-06T20:25:50.488Z,2.67
2022-09-06T20:28:53.347Z,2.17
2022-09-06T20:31:55.881Z,2.13
2022-09-06T20:34:58.870Z,2.20
2022-09-06T20:38:01.753Z,2.30
2022-09-06T20:41:04.911Z,2.28
2022-09-06T20:44:07.554Z,2.10
2022-09-06T20:47:10.606Z,2.28
2022-09-06T20:50:13.503Z,2.47
2022-09-06T20:53:16.162Z,2.20
2022-09-06T20:56:18.740Z,2.55
2022-09-06T20:59:21.024Z,2.30
2022-09-06T21:02:23.746Z,2.20
2022-09-06T21:05:26.213Z,2.45
2022-09-06T21:08:32.791Z,2.50
2022-09-06T21:11:36.897Z,2.10
2022-09-06T21:14:39.581Z,2.60
2022-09-06T21:17:42.564Z,2.58
2022-09-06T21:20:45.827Z,2.80
2022-09-06T21:23:48.566Z,2.65
2022-09-06T21:26:51.394Z,2.78
2022-09-06T21:29:54.287Z,2.45
2022-09-06T21:32:57.370Z,3.00
2022-09-06T21:36:00.755Z,2.83
2022-09-06T21:39:03.323Z,2.70
2022-09-06T21:42:06.300Z,2.70
2022-09-06T21:45:09.470Z,2.80
2022-09-06T21:48:12.419Z,3.13
2022-09-06T21:51:15.354Z,2.70
2022-09-06T21:54:18.328Z,2.63
2022-09-06T21:57:21.124Z,2.70
2022-09-06T22:00:23.390Z,2.40
2022-09-06T22:03:26.273Z,2.70
2022-09-06T22:06:29.091Z,2.70
2022-09-06T22:09:31.991Z,2.78
2022-09-06T22:12:34.922Z,2.63
2022-09-06T22:15:37.098Z,2.47
2022-09-06T22:18:39.682Z,2.60
2022-09-06T22:21:42.310Z,2.78
2022-09-06T22:24:45.003Z,2.35
2022-09-06T22:27:47.203Z,2.40
2022-09-06T22:30:50.186Z,2.80
2022-09-06T22:33:53.052Z,2.58
2022-09-06T22:36:55.572Z,3.00
2022-09-06T22:39:58.744Z,2.47
2022-09-06T22:43:01.232Z,2.95
2022-09-06T22:46:03.822Z,3.00
2022-09-06T22:49:06.422Z,3.17
2022-09-06T22:52:09.020Z,2.88
2022-09-06T22:55:11.969Z,3.13
2022-09-06T22:58:15.126Z,3.28
2022-09-06T23:01:18.466Z,3.20
2022-09-06T23:04:21.722Z,3.00
2022-09-06T23:07:25.295Z,3.10
2022-09-06T23:10:28.261Z,2.75
2022-09-06T23:13:31.450Z,2.85
2022-09-06T23:16:34.590Z,3.03
2022-09-06T23:19:38.014Z,2.92
2022-09-06T23:22:41.056Z,2.92
2022-09-06T23:25:45.064Z,2.85
2022-09-06T23:28:47.588Z,2.80
2022-09-06T23:31:50.249Z,2.80
2022-09-06T23:34:52.738Z,2.60
2022-09-06T23:37:55.465Z,2.50
2022-09-06T23:40:58.557Z,2.20
2022-09-06T23:44:02.264Z,2.15
2022-09-06T23:47:04.953Z,2.20
2022-09-06T23:50:07.861Z,2.42
2022-09-06T23:53:10.364Z,2.40
2022-09-06T23:56:13.126Z,2.35
2022-09-06T23:59:16.078Z,2.40
